createdAt,value
2022-09-26T00:04:02.276Z,2.50
2022-09-26T00:06:29.277Z,2.72
2022-09-26T00:08:56.675Z,2.45
2022-09-26T00:11:30.237Z,2.50
2022-09-26T00:13:59.687Z,2.97
2022-09-26T00:16:27.242Z,2.65
2022-09-26T00:18:57.003Z,2.78
2022-09-26T00:23:50.566Z,2.80
2022-09-26T00:26:19.492Z,2.38
2022-09-26T00:28:46.461Z,2.47
2022-09-26T00:31:20.866Z,3.15
2022-09-26T00:33:47.542Z,2.80
2022-09-26T00:36:14.376Z,3.30
2022-09-26T00:38:41.273Z,2.75
2022-09-26T00:41:08.727Z,2.78
2022-09-26T00:43:45.657Z,3.08
2022-09-26T00:46:15.320Z,3.25
2022-09-26T00:51:11.313Z,3.00
2022-09-26T00:53:41.954Z,3.58
2022-09-26T00:56:15.362Z,3.10
2022-09-26T00:58:48.006Z,3.17
2022-09-26T01:01:15.857Z,2.67
2022-09-26T01:03:45.246Z,3.75
2022-09-26T01:06:12.536Z,3.13
2022-09-26T01:08:45.242Z,3.88
2022-09-26T01:11:17.171Z,4.18
2022-09-26T01:13:45.117Z,4.28
2022-09-26T01:16:11.762Z,3.47
2022-09-26T01:18:38.913Z,4.18
2022-09-26T01:21:24.107Z,4.22
2022-09-26T01:23:57.902Z,4.72
2022-09-26T01:26:39.601Z,4.43
2022-09-26T01:29:40.296Z,4.25
2022-09-26T01:32:40.892Z,4.50
2022-09-26T01:35:34.809Z,3.78
2022-09-26T01:38:11.700Z,4.60
2022-09-26T01:41:15.835Z,4.80
2022-09-26T01:44:06.568Z,5.30
2022-09-26T01:46:47.489Z,4.70
2022-09-26T01:49:37.636Z,4.85
2022-09-26T01:52:13.135Z,4.93
2022-09-26T01:54:49.079Z,4.95
2022-09-26T01:57:23.654Z,4.93
2022-09-26T01:59:56.439Z,4.90
2022-09-26T02:02:27.397Z,5.07
2022-09-26T02:05:00.334Z,5.28
2022-09-26T02:07:41.639Z,5.03
2022-09-26T02:10:22.969Z,4.70
2022-09-26T02:12:58.919Z,4.90
2022-09-26T02:15:29.217Z,5.00
2022-09-26T02:18:05.843Z,4.60
2022-09-26T02:20:37.797Z,4.60
2022-09-26T02:23:05.483Z,5.00
2022-09-26T02:25:33.074Z,4.72
2022-09-26T02:28:00.267Z,4.93
2022-09-26T02:30:27.061Z,5.10
2022-09-26T02:32:53.893Z,4.70
2022-09-26T02:35:42.440Z,4.47
2022-09-26T02:38:09.806Z,4.57
2022-09-26T02:40:52.837Z,5.50
2022-09-26T02:43:34.952Z,4.22
2022-09-26T02:46:17.964Z,4.03
2022-09-26T02:48:51.560Z,4.28
2022-09-26T02:51:26.554Z,4.90
2022-09-26T02:54:21.525Z,4.07
2022-09-26T02:57:03.407Z,4.38
2022-09-26T02:59:37.380Z,4.63
2022-09-26T03:02:18.122Z,4.93
2022-09-26T03:05:17.770Z,4.93
2022-09-26T03:07:54.032Z,5.18
2022-09-26T03:10:20.962Z,5.03
2022-09-26T03:12:49.903Z,5.40
2022-09-26T03:15:17.604Z,4.88
2022-09-26T03:17:50.084Z,4.80
2022-09-26T03:20:21.483Z,4.68
2022-09-26T03:22:50.353Z,4.15
2022-09-26T03:25:22.324Z,4.63
2022-09-26T03:27:56.302Z,4.47
2022-09-26T03:30:23.762Z,4.63
2022-09-26T03:33:10.555Z,4.55
2022-09-26T03:35:37.384Z,4.57
2022-09-26T03:38:04.048Z,4.43
2022-09-26T03:40:36.184Z,5.22
2022-09-26T03:43:24.150Z,5.15
2022-09-26T03:45:52.128Z,5.18
2022-09-26T03:48:23.638Z,4.95
2022-09-26T03:50:50.407Z,4.97
2022-09-26T03:53:17.180Z,5.43
2022-09-26T03:55:43.764Z,5.05
2022-09-26T03:58:10.426Z,5.05
2022-09-26T04:00:39.592Z,4.65
2022-09-26T04:03:06.958Z,4.72
2022-09-26T04:05:38.226Z,4.97
2022-09-26T04:08:05.852Z,5.55
2022-09-26T04:10:33.682Z,4.70
2022-09-26T04:13:01.097Z,4.55
2022-09-26T04:15:29.377Z,5.13
2022-09-26T04:18:05.365Z,4.63
2022-09-26T04:20:32.097Z,4.50
2022-09-26T04:23:00.279Z,4.35
2022-09-26T04:25:26.862Z,4.38
2022-09-26T04:27:53.411Z,4.35
2022-09-26T04:30:21.567Z,4.60
2022-09-26T04:32:54.041Z,4.70
2022-09-26T04:35:27.336Z,4.30
2022-09-26T04:37:53.913Z,4.05
2022-09-26T04:40:20.917Z,5.45
2022-09-26T04:43:00.784Z,5.53
2022-09-26T04:45:27.504Z,4.78
2022-09-26T04:47:54.102Z,5.03
2022-09-26T04:50:26.571Z,4.90
2022-09-26T04:53:06.917Z,5.30
2022-09-26T04:55:37.701Z,5.35
2022-09-26T04:58:04.296Z,5.10
2022-09-26T05:00:31.546Z,4.95
2022-09-26T05:03:02.903Z,5.38
2022-09-26T05:05:31.205Z,6.45
2022-09-26T05:07:57.811Z,5.20
2022-09-26T05:10:24.597Z,5.78
2022-09-26T05:13:03.348Z,4.90
2022-09-26T05:15:30.694Z,5.80
2022-09-26T05:17:59.442Z,5.72
2022-09-26T05:20:31.740Z,5.50
2022-09-26T05:23:04.268Z,6.10
2022-09-26T05:25:56.802Z,6.03
2022-09-26T05:28:24.738Z,6.70
2022-09-26T05:30:52.886Z,6.03
2022-09-26T05:33:21.246Z,6.88
2022-09-26T05:35:54.752Z,6.90
2022-09-26T05:38:21.637Z,7.43
2022-09-26T05:40:57.940Z,6.82
2022-09-26T05:43:29.270Z,7.78
2022-09-26T05:46:03.945Z,7.60
2022-09-26T05:48:36.945Z,7.40
2022-09-26T05:51:12.474Z,8.43
2022-09-26T05:53:44.244Z,7.90
2022-09-26T05:56:18.582Z,8.35
2022-09-26T05:59:21.160Z,8.45
2022-09-26T06:02:22.606Z,8.50
2022-09-26T06:05:02.767Z,8.80
2022-09-26T06:07:38.444Z,9.30
2022-09-26T06:10:09.747Z,9.13
2022-09-26T06:12:46.431Z,8.60
2022-09-26T06:15:15.544Z,9.43
2022-09-26T06:17:42.216Z,9.55
2022-09-26T06:20:10.496Z,10.05
2022-09-26T06:22:41.684Z,9.98
2022-09-26T06:25:11.113Z,9.93
2022-09-26T06:27:38.719Z,9.77
2022-09-26T06:30:08.028Z,9.90
2022-09-26T06:32:36.134Z,9.90
2022-09-26T06:35:21.635Z,10.52
2022-09-26T06:38:04.893Z,10.90
2022-09-26T06:40:33.641Z,10.70
2022-09-26T06:43:00.978Z,10.37
2022-09-26T06:45:48.863Z,11.32
2022-09-26T06:48:34.196Z,10.75
2022-09-26T06:51:26.831Z,11.32
2022-09-26T06:53:53.418Z,10.82
2022-09-26T06:56:24.921Z,11.32
2022-09-26T06:58:51.550Z,11.13
2022-09-26T07:01:22.519Z,12.20
2022-09-26T07:04:08.495Z,11.57
2022-09-26T07:06:38.707Z,10.77
2022-09-26T07:09:15.036Z,11.23
2022-09-26T07:14:39.932Z,10.25
2022-09-26T07:17:18.822Z,9.13
2022-09-26T07:20:13.140Z,8.98
2022-09-26T07:23:08.731Z,9.02
2022-09-26T07:25:38.670Z,8.13
2022-09-26T07:28:07.225Z,8.43
2022-09-26T07:30:44.068Z,8.15
2022-09-26T07:33:27.519Z,8.75
2022-09-26T07:35:59.820Z,8.43
2022-09-26T07:38:29.746Z,8.07
2022-09-26T07:40:56.367Z,7.00
2022-09-26T07:43:37.791Z,6.63
2022-09-26T07:46:28.408Z,6.72
2022-09-26T07:49:15.003Z,6.53
2022-09-26T07:51:48.010Z,6.28
2022-09-26T07:54:20.839Z,5.95
2022-09-26T07:56:47.401Z,5.60
2022-09-26T07:59:29.954Z,5.47
2022-09-26T08:02:25.056Z,5.60
2022-09-26T08:04:58.810Z,4.30
2022-09-26T08:07:28.221Z,4.50
2022-09-26T08:10:08.327Z,4.22
2022-09-26T08:15:46.228Z,3.13
2022-09-26T08:18:22.262Z,3.85
2022-09-26T08:20:49.079Z,3.72
2022-09-26T08:23:17.848Z,3.88
2022-09-26T08:25:50.724Z,3.38
2022-09-26T08:28:37.316Z,3.42
2022-09-26T08:31:05.930Z,3.80
2022-09-26T08:33:35.257Z,3.40
2022-09-26T08:36:07.390Z,3.40
2022-09-26T08:38:50.196Z,3.53
2022-09-26T08:41:44.524Z,3.97
2022-09-26T08:45:26.063Z,3.47
2022-09-26T08:48:26.900Z,3.83
2022-09-26T08:51:18.943Z,3.50
2022-09-26T08:53:53.674Z,3.72
2022-09-26T08:56:35.420Z,3.88
2022-09-26T08:59:05.439Z,3.40
2022-09-26T09:01:41.141Z,3.72
2022-09-26T09:04:53.106Z,2.97
2022-09-26T09:09:54.382Z,3.55
2022-09-26T09:12:37.072Z,3.65
2022-09-26T09:15:56.885Z,3.53
2022-09-26T09:18:59.716Z,3.05
2022-09-26T09:21:50.353Z,3.28
2022-09-26T09:24:38.926Z,2.92
2022-09-26T09:30:17.805Z,3.40
2022-09-26T09:33:21.563Z,3.45
2022-09-26T09:36:07.291Z,3.30
2022-09-26T09:39:02.985Z,3.35
2022-09-26T09:41:52.405Z,2.90
2022-09-26T09:44:32.153Z,3.42
2022-09-26T09:46:59.923Z,3.33
2022-09-26T09:49:26.943Z,3.20
2022-09-26T09:52:41.967Z,3.10
2022-09-26T09:55:42.713Z,3.00
2022-09-26T09:58:20.425Z,2.97
2022-09-26T10:01:09.797Z,3.17
2022-09-26T10:03:44.754Z,3.33
2022-09-26T10:06:13.656Z,2.60
2022-09-26T10:09:38.804Z,2.58
2022-09-26T10:12:30.431Z,3.00
2022-09-26T10:15:22.338Z,2.58
2022-09-26T10:18:26.881Z,2.72
2022-09-26T10:21:17.811Z,3.10
2022-09-26T10:23:48.839Z,2.70
2022-09-26T10:26:39.431Z,3.28
2022-09-26T10:32:56.859Z,2.90
2022-09-26T10:36:04.049Z,2.70
2022-09-26T10:38:32.671Z,2.70
2022-09-26T10:41:23.876Z,3.00
2022-09-26T10:43:55.962Z,3.15
2022-09-26T10:46:46.539Z,2.65
2022-09-26T10:50:01.062Z,2.92
2022-09-26T10:52:51.625Z,2.83
2022-09-26T10:55:30.167Z,2.70
2022-09-26T10:58:01.046Z,3.20
2022-09-26T11:00:36.695Z,2.88
2022-09-26T11:03:09.494Z,3.25
2022-09-26T11:05:56.360Z,3.03
2022-09-26T11:08:35.120Z,3.63
2022-09-26T11:11:22.492Z,3.28
2022-09-26T11:13:55.676Z,3.42
2022-09-26T11:16:22.637Z,3.45
2022-09-26T11:19:20.769Z,3.25
2022-09-26T11:22:03.225Z,3.20
2022-09-26T11:24:43.528Z,2.78
2022-09-26T11:27:38.613Z,2.40
2022-09-26T11:30:15.197Z,2.40
2022-09-26T11:32:56.346Z,2.83
2022-09-26T11:36:14.647Z,2.83
2022-09-26T11:38:56.327Z,2.70
2022-09-26T11:41:46.047Z,2.95
2022-09-26T11:44:19.893Z,2.90
2022-09-26T11:47:36.819Z,3.10
2022-09-26T11:50:25.859Z,3.13
2022-09-26T11:54:18.571Z,3.05
2022-09-26T11:57:10.552Z,2.95
2022-09-26T12:00:12.046Z,3.00
2022-09-26T12:03:17.807Z,2.80
2022-09-26T12:06:04.050Z,3.15
2022-09-26T12:09:03.242Z,2.83
2022-09-26T12:12:02.221Z,2.50
2022-09-26T12:14:55.713Z,2.55
2022-09-26T12:17:47.821Z,2.88
2022-09-26T12:20:33.301Z,2.97
2022-09-26T12:23:07.451Z,2.90
2022-09-26T12:25:48.718Z,2.42
2022-09-26T12:28:16.329Z,3.00
2022-09-26T12:30:52.865Z,2.72
2022-09-26T12:33:58.268Z,2.60
2022-09-26T12:36:31.445Z,2.50
2022-09-26T12:39:10.162Z,2.50
2022-09-26T12:42:06.581Z,2.67
2022-09-26T12:45:02.986Z,2.40
2022-09-26T12:47:41.663Z,2.72
2022-09-26T12:50:49.825Z,2.03
2022-09-26T12:53:39.212Z,2.05
2022-09-26T12:56:27.535Z,2.08
2022-09-26T12:59:06.822Z,2.28
2022-09-26T13:01:37.810Z,2.17
2022-09-26T13:04:07.356Z,3.35
2022-09-26T13:06:52.859Z,1.98
2022-09-26T13:09:44.205Z,5.10
2022-09-26T13:12:33.631Z,2.08
2022-09-26T13:15:35.779Z,2.88
2022-09-26T13:18:10.876Z,1.80
2022-09-26T13:20:43.485Z,2.13
2022-09-26T13:23:13.084Z,1.90
2022-09-26T13:28:24.577Z,1.98
2022-09-26T13:31:03.139Z,1.83
2022-09-26T13:33:42.928Z,1.58
2022-09-26T13:36:10.814Z,1.40
2022-09-26T13:38:55.790Z,1.70
2022-09-26T13:41:44.302Z,1.60
2022-09-26T13:44:22.065Z,1.58
2022-09-26T13:47:08.445Z,2.13
2022-09-26T13:49:44.451Z,1.65
2022-09-26T13:52:16.773Z,1.50
2022-09-26T13:54:55.678Z,1.70
2022-09-26T13:57:29.532Z,2.10
2022-09-26T13:59:56.068Z,1.77
2022-09-26T14:02:29.775Z,1.80
2022-09-26T14:05:02.454Z,1.88
2022-09-26T14:07:59.981Z,1.90
2022-09-26T14:10:34.277Z,1.80
2022-09-26T14:13:07.975Z,1.77
2022-09-26T14:15:57.061Z,1.83
2022-09-26T14:18:45.605Z,1.98
2022-09-26T14:21:33.878Z,1.52
2022-09-26T14:24:29.360Z,1.80
2022-09-26T14:27:25.331Z,1.85
2022-09-26T14:30:22.451Z,2.13
2022-09-26T14:32:49.171Z,2.22
2022-09-26T14:35:20.321Z,2.17
2022-09-26T14:37:50.363Z,2.13
2022-09-26T14:40:29.318Z,3.10
2022-09-26T14:43:24.072Z,3.53
2022-09-26T14:46:08.204Z,2.70
2022-09-26T14:48:38.115Z,5.57
2022-09-26T14:51:23.920Z,3.67
2022-09-26T14:53:50.636Z,2.20
2022-09-26T14:56:29.472Z,2.50
2022-09-26T14:59:24.212Z,2.10
2022-09-26T15:01:52.571Z,2.33
2022-09-26T15:04:23.874Z,2.42
2022-09-26T15:07:01.543Z,2.33
2022-09-26T15:09:42.150Z,2.53
2022-09-26T15:12:17.013Z,2.25
2022-09-26T15:15:07.319Z,2.05
2022-09-26T15:17:40.111Z,2.35
2022-09-26T15:20:16.715Z,2.30
2022-09-26T15:22:44.281Z,2.40
2022-09-26T15:25:30.495Z,2.40
2022-09-26T15:27:59.147Z,2.10
2022-09-26T15:30:37.162Z,2.30
2022-09-26T15:33:04.279Z,3.13
2022-09-26T15:35:32.211Z,3.53
2022-09-26T15:38:08.561Z,2.78
2022-09-26T15:40:35.321Z,2.60
2022-09-26T15:43:22.363Z,2.47
2022-09-26T15:45:58.256Z,2.70
2022-09-26T15:48:25.358Z,2.35
2022-09-26T15:50:53.425Z,2.67
2022-09-26T15:53:37.204Z,2.67
2022-09-26T15:56:11.532Z,2.28
2022-09-26T15:59:20.844Z,3.28
2022-09-26T16:01:52.387Z,2.35
2022-09-26T16:04:25.304Z,2.92
2022-09-26T16:07:03.353Z,3.17
2022-09-26T16:09:34.507Z,3.22
2022-09-26T16:12:19.153Z,3.58
2022-09-26T16:15:04.184Z,2.40
2022-09-26T16:17:35.803Z,2.75
2022-09-26T16:20:13.694Z,2.60
2022-09-26T16:22:45.793Z,2.88
2022-09-26T16:25:15.518Z,5.22
2022-09-26T16:30:23.561Z,2.47
2022-09-26T16:33:15.269Z,2.55
2022-09-26T16:35:47.719Z,2.85
2022-09-26T16:38:31.164Z,2.92
2022-09-26T16:41:06.162Z,3.65
2022-09-26T16:43:32.937Z,2.95
2022-09-26T16:46:09.506Z,2.67
2022-09-26T16:48:51.358Z,2.60
2022-09-26T16:51:28.752Z,2.70
2022-09-26T16:54:07.689Z,2.40
2022-09-26T16:56:43.065Z,2.35
2022-09-26T16:59:17.818Z,2.90
2022-09-26T17:01:54.366Z,2.10
2022-09-26T17:04:32.102Z,1.55
2022-09-26T17:07:00.123Z,2.35
2022-09-26T17:09:29.815Z,2.25
2022-09-26T17:14:29.905Z,2.00
2022-09-26T17:16:59.064Z,2.20
2022-09-26T17:19:29.598Z,2.13
2022-09-26T17:21:56.242Z,1.90
2022-09-26T17:24:25.342Z,2.55
2022-09-26T17:26:59.040Z,1.70
2022-09-26T17:29:29.883Z,1.50
2022-09-26T17:31:58.086Z,1.67
2022-09-26T17:34:26.825Z,1.90
2022-09-26T17:36:55.810Z,1.80
2022-09-26T17:39:25.649Z,1.70
2022-09-26T17:41:53.847Z,1.90
2022-09-26T17:44:23.946Z,2.08
2022-09-26T17:46:53.972Z,1.70
2022-09-26T17:49:26.330Z,1.65
2022-09-26T17:51:56.283Z,1.42
2022-09-26T17:54:40.711Z,1.60
2022-09-26T17:57:12.522Z,1.80
2022-09-26T17:59:41.389Z,1.67
2022-09-26T18:02:36.765Z,1.80
2022-09-26T18:05:28.463Z,2.00
2022-09-26T18:08:01.598Z,2.20
2022-09-26T18:10:30.605Z,1.83
2022-09-26T18:13:00.295Z,2.08
2022-09-26T18:17:56.809Z,1.83
2022-09-26T18:20:36.122Z,2.38
2022-09-26T18:23:05.211Z,1.80
2022-09-26T18:25:33.901Z,1.95
2022-09-26T18:28:05.775Z,1.87
2022-09-26T18:30:32.933Z,2.00
2022-09-26T18:32:59.797Z,2.38
2022-09-26T18:35:29.928Z,2.15
2022-09-26T18:37:56.652Z,1.90
2022-09-26T18:40:25.172Z,2.40
2022-09-26T18:42:57.596Z,2.10
2022-09-26T18:45:36.619Z,2.28
2022-09-26T18:48:08.079Z,2.22
2022-09-26T18:50:37.395Z,2.60
2022-09-26T18:53:12.559Z,2.33
2022-09-26T18:55:57.831Z,2.25
2022-09-26T18:58:25.129Z,2.15
2022-09-26T19:00:57.504Z,2.28
2022-09-26T19:03:27.283Z,2.45
2022-09-26T19:06:03.278Z,2.40
2022-09-26T19:08:35.568Z,2.47
2022-09-26T19:11:25.202Z,2.40
2022-09-26T19:13:57.389Z,2.42
2022-09-26T19:16:24.842Z,2.65
2022-09-26T19:18:52.096Z,2.20
2022-09-26T19:21:29.701Z,2.28
2022-09-26T19:23:59.842Z,2.50
2022-09-26T19:26:34.730Z,2.50
2022-09-26T19:29:02.031Z,2.90
2022-09-26T19:31:28.994Z,4.03
2022-09-26T19:33:57.043Z,3.03
2022-09-26T19:36:23.682Z,3.03
2022-09-26T19:38:50.358Z,3.55
2022-09-26T19:41:17.082Z,6.13
2022-09-26T19:43:43.821Z,5.75
2022-09-26T19:46:14.816Z,3.35
2022-09-26T19:48:42.597Z,2.25
2022-09-26T19:51:15.147Z,2.53
2022-09-26T19:53:41.876Z,2.60
2022-09-26T19:56:08.800Z,2.65
2022-09-26T19:58:35.466Z,2.50
2022-09-26T20:01:14.151Z,2.38
2022-09-26T20:03:41.853Z,2.30
2022-09-26T20:06:28.988Z,2.53
2022-09-26T20:09:01.727Z,2.40
2022-09-26T20:11:28.676Z,2.92
2022-09-26T20:14:13.728Z,2.65
2022-09-26T20:16:42.254Z,3.25
2022-09-26T20:19:15.531Z,3.67
2022-09-26T20:21:42.555Z,2.55
2022-09-26T20:24:16.389Z,2.58
2022-09-26T20:26:43.383Z,3.03
2022-09-26T20:29:14.543Z,2.75
2022-09-26T20:31:43.472Z,2.50
2022-09-26T20:34:11.527Z,2.75
2022-09-26T20:36:42.077Z,2.80
2022-09-26T20:39:17.953Z,2.53
2022-09-26T20:41:44.684Z,3.08
2022-09-26T20:44:16.556Z,2.42
2022-09-26T20:46:50.009Z,2.33
2022-09-26T20:49:29.936Z,2.40
2022-09-26T20:51:58.185Z,2.42
2022-09-26T20:54:29.093Z,2.20
2022-09-26T20:56:57.230Z,3.20
2022-09-26T20:59:25.149Z,2.50
2022-09-26T21:01:53.352Z,2.50
2022-09-26T21:04:28.582Z,2.58
2022-09-26T21:06:55.721Z,2.33
2022-09-26T21:09:22.306Z,2.47
2022-09-26T21:11:49.313Z,2.58
2022-09-26T21:14:16.812Z,2.75
2022-09-26T21:16:46.739Z,2.60
2022-09-26T21:19:21.508Z,2.28
2022-09-26T21:21:52.117Z,3.08
2022-09-26T21:24:32.649Z,2.70
2022-09-26T21:26:59.243Z,2.72
2022-09-26T21:29:27.202Z,2.42
2022-09-26T21:31:56.153Z,2.70
2022-09-26T21:34:26.687Z,2.95
2022-09-26T21:36:56.873Z,3.50
2022-09-26T21:39:25.400Z,3.20
2022-09-26T21:41:57.391Z,3.55
2022-09-26T21:44:37.551Z,3.45
2022-09-26T21:47:04.169Z,4.00
2022-09-26T21:49:30.790Z,3.85
2022-09-26T21:52:11.339Z,3.88
2022-09-26T21:54:42.705Z,4.30
2022-09-26T21:57:19.377Z,5.32
2022-09-26T21:59:47.890Z,5.45
2022-09-26T22:02:14.793Z,5.60
2022-09-26T22:04:41.447Z,6.53
2022-09-26T22:07:08.288Z,7.60
2022-09-26T22:09:35.081Z,7.47
2022-09-26T22:12:01.925Z,7.95
2022-09-26T22:14:28.668Z,8.95
2022-09-26T22:16:55.876Z,9.02
2022-09-26T22:19:23.605Z,9.10
2022-09-26T22:21:51.661Z,10.10
2022-09-26T22:24:18.806Z,9.57
2022-09-26T22:26:45.548Z,11.60
2022-09-26T22:29:12.813Z,12.15
2022-09-26T22:31:39.495Z,12.40
2022-09-26T22:34:06.076Z,13.35
2022-09-26T22:36:33.142Z,13.05
2022-09-26T22:38:59.985Z,13.35
2022-09-26T22:41:26.711Z,13.65
2022-09-26T22:43:53.341Z,12.95
2022-09-26T22:46:20.128Z,13.23
2022-09-26T22:48:46.947Z,13.02
2022-09-26T22:51:15.013Z,11.98
2022-09-26T22:53:43.002Z,12.25
2022-09-26T22:56:12.533Z,12.57
2022-09-26T22:58:44.893Z,11.55
2022-09-26T23:01:15.378Z,12.57
2022-09-26T23:03:42.382Z,12.32
2022-09-26T23:06:10.205Z,12.40
2022-09-26T23:08:37.515Z,13.38
2022-09-26T23:11:05.577Z,13.07
2022-09-26T23:13:33.728Z,13.65
2022-09-26T23:16:29.560Z,13.25
2022-09-26T23:18:58.847Z,13.75
2022-09-26T23:21:27.400Z,13.93
2022-09-26T23:23:56.675Z,13.50
2022-09-26T23:26:29.307Z,13.60
2022-09-26T23:28:57.654Z,13.70
2022-09-26T23:31:25.561Z,14.38
2022-09-26T23:33:53.277Z,13.88
2022-09-26T23:36:20.093Z,14.82
2022-09-26T23:38:46.959Z,14.20
2022-09-26T23:41:14.421Z,13.50
2022-09-26T23:43:41.158Z,10.80
2022-09-26T23:46:08.812Z,10.55
2022-09-26T23:48:35.814Z,10.35
2022-09-26T23:51:02.527Z,10.55
2022-09-26T23:53:29.790Z,11.93
2022-09-26T23:56:07.956Z,11.57
2022-09-26T23:58:35.149Z,11.15
